createdAt,value
2022-07-31T00:01:34.690Z,2.70
2022-07-31T00:04:03.543Z,8.57
2022-07-31T00:06:33.531Z,5.50
2022-07-31T00:09:02.072Z,5.43
2022-07-31T00:11:31.228Z,5.17
2022-07-31T00:13:59.673Z,4.10
2022-07-31T00:16:28.208Z,2.70
2022-07-31T00:18:56.720Z,3.30
2022-07-31T00:21:25.354Z,2.77
2022-07-31T00:23:55.234Z,2.73
2022-07-31T00:26:24.046Z,3.17
2022-07-31T00:28:52.512Z,3.63
2022-07-31T00:31:21.099Z,5.17
2022-07-31T00:33:49.572Z,2.40
2022-07-31T00:36:18.177Z,2.67
2022-07-31T00:38:46.758Z,3.07
2022-07-31T00:41:16.716Z,4.23
2022-07-31T00:43:45.404Z,3.37
2022-07-31T00:46:14.625Z,2.97
2022-07-31T00:48:43.363Z,3.30
2022-07-31T00:51:12.562Z,4.13
2022-07-31T00:53:41.055Z,4.80
2022-07-31T00:56:09.687Z,2.77
2022-07-31T00:58:39.610Z,2.77
2022-07-31T01:01:08.376Z,3.63
2022-07-31T01:03:36.910Z,3.00
2022-07-31T01:06:05.607Z,2.57
2022-07-31T01:08:34.098Z,3.60
2022-07-31T01:11:06.966Z,2.60
2022-07-31T01:13:41.082Z,2.97
2022-07-31T01:16:11.141Z,4.00
2022-07-31T01:18:41.260Z,2.70
2022-07-31T01:21:15.071Z,2.97
2022-07-31T01:23:55.104Z,3.97
2022-07-31T01:26:36.082Z,4.17
2022-07-31T01:29:25.969Z,3.77
2022-07-31T01:32:03.127Z,3.57
2022-07-31T01:34:36.160Z,4.50
2022-07-31T01:37:12.391Z,3.30
2022-07-31T01:39:46.609Z,2.70
2022-07-31T01:42:18.015Z,3.00
2022-07-31T01:44:50.855Z,4.63
2022-07-31T01:47:21.866Z,3.23
2022-07-31T01:49:51.670Z,4.60
2022-07-31T01:52:20.771Z,2.80
2022-07-31T01:54:49.555Z,4.63
2022-07-31T01:57:18.836Z,4.07
2022-07-31T01:59:49.539Z,2.87
2022-07-31T02:02:23.602Z,3.13
2022-07-31T02:04:53.056Z,2.73
2022-07-31T02:07:22.193Z,3.00
2022-07-31T02:09:58.840Z,3.60
2022-07-31T02:12:31.938Z,3.30
2022-07-31T02:15:06.059Z,3.30
2022-07-31T02:17:35.362Z,3.40
2022-07-31T02:20:05.647Z,3.23
2022-07-31T02:22:34.995Z,2.80
2022-07-31T02:25:03.874Z,2.90
2022-07-31T02:27:53.896Z,2.93
2022-07-31T02:30:22.920Z,2.80
2022-07-31T02:32:51.746Z,3.33
2022-07-31T02:35:20.861Z,4.13
2022-07-31T02:37:52.508Z,2.93
2022-07-31T02:40:21.629Z,3.43
2022-07-31T02:42:50.316Z,3.37
2022-07-31T02:45:19.530Z,3.10
2022-07-31T02:47:50.256Z,3.37
2022-07-31T02:50:20.237Z,3.30
2022-07-31T02:52:49.207Z,3.03
2022-07-31T02:55:19.039Z,2.90
2022-07-31T02:57:48.702Z,3.40
2022-07-31T03:00:23.052Z,2.63
2022-07-31T03:02:53.983Z,3.07
2022-07-31T03:05:22.922Z,3.00
2022-07-31T03:07:51.650Z,2.80
2022-07-31T03:10:20.679Z,2.97
2022-07-31T03:12:51.600Z,2.90
2022-07-31T03:15:22.003Z,3.40
2022-07-31T03:17:52.520Z,4.30
2022-07-31T03:20:21.469Z,3.73
2022-07-31T03:22:50.107Z,3.00
2022-07-31T03:25:21.863Z,2.93
2022-07-31T03:27:55.779Z,3.20
2022-07-31T03:30:26.139Z,3.20
2022-07-31T03:32:57.291Z,3.20
2022-07-31T03:35:27.111Z,2.80
2022-07-31T03:37:55.648Z,3.10
2022-07-31T03:40:24.265Z,3.27
2022-07-31T03:42:54.144Z,4.07
2022-07-31T03:45:23.217Z,2.57
2022-07-31T03:47:51.911Z,2.93
2022-07-31T03:50:22.534Z,2.70
2022-07-31T03:52:51.304Z,2.73
2022-07-31T03:55:20.011Z,2.60
2022-07-31T03:57:48.588Z,2.60
2022-07-31T04:00:20.543Z,2.70
2022-07-31T04:02:49.156Z,2.67
2022-07-31T04:05:17.799Z,2.57
2022-07-31T04:07:47.683Z,2.50
2022-07-31T04:10:16.202Z,2.63
2022-07-31T04:12:44.679Z,2.70
2022-07-31T04:15:13.327Z,2.50
2022-07-31T04:17:41.927Z,2.80
2022-07-31T04:20:11.653Z,2.80
2022-07-31T04:22:40.152Z,2.50
2022-07-31T04:25:10.947Z,3.13
2022-07-31T04:27:45.611Z,3.93
2022-07-31T04:30:16.708Z,4.07
2022-07-31T04:32:45.246Z,3.30
2022-07-31T04:35:14.305Z,2.93
2022-07-31T04:37:48.217Z,2.93
2022-07-31T04:40:18.473Z,2.80
2022-07-31T04:42:46.948Z,2.47
2022-07-31T04:45:15.512Z,2.60
2022-07-31T04:47:44.023Z,2.77
2022-07-31T04:50:12.596Z,2.77
2022-07-31T04:52:41.179Z,2.70
2022-07-31T04:55:10.613Z,2.30
2022-07-31T04:57:40.499Z,2.87
2022-07-31T05:00:10.617Z,2.60
2022-07-31T05:02:40.405Z,2.60
2022-07-31T05:05:09.742Z,2.47
2022-07-31T05:07:38.216Z,2.50
2022-07-31T05:10:07.466Z,2.53
2022-07-31T05:12:35.963Z,2.93
2022-07-31T05:15:06.986Z,2.90
2022-07-31T05:17:35.458Z,4.30
2022-07-31T05:20:04.096Z,2.90
2022-07-31T05:22:32.572Z,2.90
2022-07-31T05:25:01.173Z,2.93
2022-07-31T05:27:32.229Z,2.90
2022-07-31T05:30:08.244Z,3.20
2022-07-31T05:32:36.742Z,3.63
2022-07-31T05:35:06.007Z,3.77
2022-07-31T05:37:36.450Z,3.40
2022-07-31T05:40:05.903Z,3.40
2022-07-31T05:42:34.398Z,3.87
2022-07-31T05:45:03.129Z,4.00
2022-07-31T05:47:40.693Z,4.53
2022-07-31T05:50:10.430Z,8.87
2022-07-31T05:52:38.963Z,4.70
2022-07-31T05:55:08.283Z,5.27
2022-07-31T05:57:36.799Z,4.17
2022-07-31T06:00:06.368Z,4.40
2022-07-31T06:02:36.822Z,4.67
2022-07-31T06:05:05.520Z,4.10
2022-07-31T06:07:33.995Z,4.57
2022-07-31T06:10:02.517Z,5.13
2022-07-31T06:12:30.982Z,4.93
2022-07-31T06:15:00.137Z,4.47
2022-07-31T06:17:40.325Z,3.97
2022-07-31T06:20:14.716Z,3.57
2022-07-31T06:22:44.919Z,2.80
2022-07-31T06:25:14.154Z,3.43
2022-07-31T06:27:43.955Z,2.80
2022-07-31T06:30:19.579Z,2.50
2022-07-31T06:32:48.073Z,2.60
2022-07-31T06:35:18.018Z,2.77
2022-07-31T06:37:46.516Z,2.60
2022-07-31T06:40:15.179Z,2.80
2022-07-31T06:42:45.646Z,2.50
2022-07-31T06:45:29.902Z,2.60
2022-07-31T06:48:02.807Z,2.30
2022-07-31T06:50:32.668Z,3.13
2022-07-31T06:53:01.162Z,3.40
2022-07-31T06:55:29.675Z,3.42
2022-07-31T06:57:58.577Z,2.88
2022-07-31T07:00:27.341Z,2.47
2022-07-31T07:02:56.197Z,2.88
2022-07-31T07:05:25.139Z,2.60
2022-07-31T07:07:55.022Z,2.50
2022-07-31T07:10:23.599Z,2.60
2022-07-31T07:12:52.138Z,2.72
2022-07-31T07:15:22.751Z,3.53
2022-07-31T07:17:51.800Z,2.08
2022-07-31T07:20:20.468Z,2.47
2022-07-31T07:22:49.060Z,3.55
2022-07-31T07:25:20.505Z,6.65
2022-07-31T07:27:49.123Z,3.60
2022-07-31T07:30:17.651Z,2.47
2022-07-31T07:32:46.282Z,2.60
2022-07-31T07:35:14.881Z,2.60
2022-07-31T07:37:43.517Z,2.30
2022-07-31T07:40:12.722Z,3.92
2022-07-31T07:42:44.605Z,2.33
2022-07-31T07:45:18.319Z,2.50
2022-07-31T07:47:53.765Z,2.65
2022-07-31T07:50:34.931Z,2.85
2022-07-31T07:53:03.618Z,2.60
2022-07-31T07:55:37.350Z,2.40
2022-07-31T07:58:12.113Z,2.72
2022-07-31T08:00:41.247Z,2.70
2022-07-31T08:03:49.068Z,2.60
2022-07-31T08:06:01.548Z,3.33
2022-07-31T08:08:30.133Z,3.42
2022-07-31T08:10:59.183Z,2.67
2022-07-31T08:13:29.055Z,2.65
2022-07-31T08:15:57.702Z,3.28
2022-07-31T08:18:31.700Z,2.63
2022-07-31T08:21:00.476Z,2.92
2022-07-31T08:23:29.211Z,2.70
2022-07-31T08:25:57.757Z,3.33
2022-07-31T08:28:28.623Z,2.92
2022-07-31T08:30:58.411Z,2.85
2022-07-31T08:33:27.108Z,4.57
2022-07-31T08:35:56.918Z,4.72
2022-07-31T08:38:25.502Z,9.20
2022-07-31T08:40:53.985Z,5.20
2022-07-31T08:44:00.544Z,2.50
2022-07-31T08:46:13.041Z,3.05
2022-07-31T08:48:42.844Z,2.70
2022-07-31T08:51:14.240Z,2.95
2022-07-31T08:53:44.356Z,3.15
2022-07-31T08:56:13.566Z,2.58
2022-07-31T08:58:42.183Z,4.15
2022-07-31T09:01:14.554Z,2.70
2022-07-31T09:03:45.722Z,3.92
2022-07-31T09:06:14.254Z,3.05
2022-07-31T09:08:42.758Z,2.72
2022-07-31T09:11:13.350Z,3.00
2022-07-31T09:13:42.579Z,2.80
2022-07-31T09:16:32.110Z,2.05
2022-07-31T09:19:02.186Z,2.20
2022-07-31T09:21:40.380Z,2.75
2022-07-31T09:24:10.315Z,1.90
2022-07-31T09:26:40.957Z,2.15
2022-07-31T09:29:11.948Z,2.40
2022-07-31T09:31:41.928Z,5.03
2022-07-31T09:34:10.584Z,3.13
2022-07-31T09:36:39.111Z,2.03
2022-07-31T09:39:15.180Z,2.88
2022-07-31T09:41:58.312Z,2.00
2022-07-31T09:44:45.800Z,2.15
2022-07-31T09:47:28.032Z,2.05
2022-07-31T09:49:58.350Z,2.00
2022-07-31T09:52:27.893Z,1.90
2022-07-31T09:55:14.291Z,1.90
2022-07-31T09:57:54.450Z,1.73
2022-07-31T10:00:23.658Z,2.28
2022-07-31T10:02:55.577Z,2.05
2022-07-31T10:05:25.489Z,8.90
2022-07-31T10:07:55.588Z,2.28
2022-07-31T10:10:25.334Z,2.17
2022-07-31T10:12:56.129Z,4.80
2022-07-31T10:15:24.988Z,5.95
2022-07-31T10:17:55.898Z,3.05
2022-07-31T10:20:25.805Z,2.25
2022-07-31T10:22:57.214Z,2.13
2022-07-31T10:25:27.843Z,2.83
2022-07-31T10:27:57.706Z,2.00
2022-07-31T10:30:28.308Z,1.58
2022-07-31T10:32:59.226Z,2.00
2022-07-31T10:35:27.869Z,6.38
2022-07-31T10:38:02.716Z,4.43
2022-07-31T10:40:37.307Z,2.20
2022-07-31T10:43:19.367Z,1.85
2022-07-31T10:45:49.157Z,1.88
2022-07-31T10:48:19.696Z,2.08
2022-07-31T10:50:49.022Z,1.92
2022-07-31T10:53:19.406Z,1.88
2022-07-31T10:55:48.069Z,2.58
2022-07-31T10:58:19.578Z,1.80
2022-07-31T11:00:48.336Z,1.70
2022-07-31T11:03:20.224Z,1.75
2022-07-31T11:06:00.967Z,2.13
2022-07-31T11:08:42.462Z,1.80
2022-07-31T11:11:11.665Z,2.13
2022-07-31T11:13:47.752Z,1.90
2022-07-31T11:16:16.356Z,1.70
2022-07-31T11:18:47.469Z,1.60
2022-07-31T11:21:37.567Z,2.17
2022-07-31T11:24:15.423Z,1.70
2022-07-31T11:26:49.606Z,1.70
2022-07-31T11:30:01.945Z,2.10
2022-07-31T11:32:17.702Z,3.33
2022-07-31T11:34:58.827Z,1.80
2022-07-31T11:37:46.495Z,1.67
2022-07-31T11:40:20.474Z,2.33
2022-07-31T11:43:10.395Z,1.95
2022-07-31T11:45:48.235Z,2.35
2022-07-31T11:48:19.241Z,3.88
2022-07-31T11:50:51.102Z,2.85
2022-07-31T11:53:21.177Z,1.80
2022-07-31T11:55:51.689Z,1.98
2022-07-31T11:58:23.499Z,1.80
2022-07-31T12:00:53.615Z,2.40
2022-07-31T12:03:24.034Z,1.60
2022-07-31T12:05:54.682Z,1.60
2022-07-31T12:08:24.173Z,1.65
2022-07-31T12:10:54.599Z,1.70
2022-07-31T12:13:24.311Z,1.70
2022-07-31T12:15:58.072Z,1.65
2022-07-31T12:18:29.531Z,1.40
2022-07-31T12:21:01.315Z,1.67
2022-07-31T12:23:41.799Z,1.80
2022-07-31T12:26:14.113Z,1.65
2022-07-31T12:28:43.689Z,1.70
2022-07-31T12:31:12.198Z,2.00
2022-07-31T12:33:44.381Z,1.75
2022-07-31T12:36:15.567Z,1.75
2022-07-31T12:38:48.511Z,1.45
2022-07-31T12:41:18.145Z,1.67
2022-07-31T12:43:51.836Z,1.70
2022-07-31T12:46:22.911Z,1.70
2022-07-31T12:48:52.081Z,1.70
2022-07-31T12:51:46.313Z,1.80
2022-07-31T12:54:11.296Z,1.95
2022-07-31T12:56:40.677Z,1.95
2022-07-31T12:59:10.263Z,2.17
2022-07-31T13:01:39.025Z,1.83
2022-07-31T13:04:18.943Z,1.90
2022-07-31T13:06:51.624Z,2.17
2022-07-31T13:09:21.176Z,1.70
2022-07-31T13:11:54.485Z,2.17
2022-07-31T13:14:26.065Z,1.90
2022-07-31T13:16:55.207Z,1.77
2022-07-31T13:19:23.707Z,2.08
2022-07-31T13:21:56.914Z,2.38
2022-07-31T13:24:26.289Z,2.00
2022-07-31T13:26:54.939Z,1.90
2022-07-31T13:29:23.510Z,2.00
2022-07-31T13:31:52.369Z,2.15
2022-07-31T13:34:21.205Z,1.90
2022-07-31T13:36:49.685Z,1.90
2022-07-31T13:39:20.104Z,2.08
2022-07-31T13:41:48.665Z,1.92
2022-07-31T13:44:17.594Z,1.92
2022-07-31T13:46:47.358Z,2.17
2022-07-31T13:49:19.264Z,2.03
2022-07-31T13:51:47.706Z,1.83
2022-07-31T13:54:16.487Z,1.95
2022-07-31T13:56:46.385Z,1.88
2022-07-31T13:59:14.843Z,2.33
2022-07-31T14:02:03.580Z,2.28
2022-07-31T14:04:38.062Z,2.10
2022-07-31T14:07:08.875Z,1.90
2022-07-31T14:09:37.874Z,2.17
2022-07-31T14:12:09.068Z,2.20
2022-07-31T14:14:38.111Z,2.35
2022-07-31T14:17:06.619Z,2.13
2022-07-31T14:19:43.700Z,1.98
2022-07-31T14:22:14.931Z,2.20
2022-07-31T14:24:50.034Z,2.10
2022-07-31T14:27:21.884Z,2.10
2022-07-31T14:29:50.487Z,2.00
2022-07-31T14:32:19.650Z,2.00
2022-07-31T14:34:48.341Z,1.90
2022-07-31T14:37:16.911Z,2.10
2022-07-31T14:39:45.442Z,2.45
2022-07-31T14:42:14.357Z,2.42
2022-07-31T14:44:45.575Z,2.08
2022-07-31T14:47:14.834Z,2.40
2022-07-31T14:50:09.552Z,2.42
2022-07-31T14:52:32.763Z,2.17
2022-07-31T14:55:01.900Z,1.95
2022-07-31T14:57:31.470Z,1.95
2022-07-31T15:00:01.946Z,2.10
2022-07-31T15:02:30.455Z,2.63
2022-07-31T15:06:37.614Z,2.17
2022-07-31T15:07:48.314Z,2.33
2022-07-31T15:10:17.125Z,2.53
2022-07-31T15:12:45.627Z,2.53
2022-07-31T15:15:15.506Z,2.38
2022-07-31T15:17:43.975Z,2.10
2022-07-31T15:20:13.501Z,2.13
2022-07-31T15:22:52.392Z,2.08
2022-07-31T15:25:24.204Z,2.20
2022-07-31T15:28:10.567Z,2.20
2022-07-31T15:30:43.076Z,2.53
2022-07-31T15:33:11.621Z,2.28
2022-07-31T15:35:40.211Z,2.33
2022-07-31T15:38:08.944Z,2.40
2022-07-31T15:40:37.726Z,2.17
2022-07-31T15:43:06.295Z,2.42
2022-07-31T15:45:34.823Z,2.08
2022-07-31T15:48:09.841Z,2.08
2022-07-31T15:50:38.784Z,4.35
2022-07-31T15:53:32.851Z,2.75
2022-07-31T15:56:08.075Z,3.60
2022-07-31T15:58:36.660Z,2.88
2022-07-31T16:01:05.350Z,2.33
2022-07-31T16:03:50.398Z,2.50
2022-07-31T16:06:19.771Z,2.35
2022-07-31T16:09:01.982Z,1.98
2022-07-31T16:12:03.668Z,2.22
2022-07-31T16:14:19.335Z,2.85
2022-07-31T16:16:47.903Z,2.63
2022-07-31T16:19:21.808Z,3.22
2022-07-31T16:21:50.422Z,3.30
2022-07-31T16:24:20.467Z,2.30
2022-07-31T16:26:50.395Z,2.20
2022-07-31T16:29:59.306Z,2.13
2022-07-31T16:32:10.204Z,2.05
2022-07-31T16:34:40.303Z,2.08
2022-07-31T16:37:08.903Z,2.17
2022-07-31T16:39:37.431Z,2.20
2022-07-31T16:42:26.142Z,3.47
2022-07-31T16:45:14.722Z,5.13
2022-07-31T16:47:51.011Z,2.20
2022-07-31T16:50:23.262Z,4.47
2022-07-31T16:52:54.826Z,4.10
2022-07-31T16:55:46.144Z,7.15
2022-07-31T16:58:13.714Z,2.92
2022-07-31T17:00:42.617Z,2.65
2022-07-31T17:04:01.610Z,2.35
2022-07-31T17:06:01.446Z,2.15
2022-07-31T17:08:29.991Z,2.30
2022-07-31T17:10:58.558Z,2.03
2022-07-31T17:13:27.217Z,2.17
2022-07-31T17:15:55.945Z,2.10
2022-07-31T17:18:25.363Z,3.08
2022-07-31T17:20:55.823Z,3.95
2022-07-31T17:23:42.835Z,4.68
2022-07-31T17:26:21.452Z,3.70
2022-07-31T17:28:51.357Z,4.90
2022-07-31T17:31:20.451Z,3.10
2022-07-31T17:33:49.123Z,3.03
2022-07-31T17:36:28.802Z,3.55
2022-07-31T17:38:59.074Z,2.60
2022-07-31T17:41:27.658Z,4.97
2022-07-31T17:43:56.451Z,12.48
2022-07-31T17:46:34.975Z,38.38
2022-07-31T17:49:19.513Z,54.88
2022-07-31T17:52:00.010Z,32.35
2022-07-31T17:54:37.780Z,25.15
2022-07-31T17:57:06.542Z,54.55
2022-07-31T17:59:35.134Z,38.17
2022-07-31T18:02:04.749Z,10.00
2022-07-31T18:04:35.120Z,8.57
2022-07-31T18:07:05.296Z,6.85
2022-07-31T18:09:35.211Z,4.53
2022-07-31T18:12:05.842Z,18.17
2022-07-31T18:14:34.542Z,13.65
2022-07-31T18:17:03.191Z,8.32
2022-07-31T18:19:31.764Z,38.28
2022-07-31T18:22:00.242Z,26.67
2022-07-31T18:24:29.158Z,31.27
2022-07-31T18:26:57.728Z,17.05
2022-07-31T18:29:27.635Z,30.20
2022-07-31T18:31:56.299Z,15.30
2022-07-31T18:34:25.040Z,5.07
2022-07-31T18:36:55.138Z,14.05
2022-07-31T18:39:24.404Z,30.40
2022-07-31T18:41:52.994Z,45.80
2022-07-31T18:44:22.228Z,35.00
2022-07-31T18:46:53.078Z,31.00
2022-07-31T18:50:58.659Z,15.80
2022-07-31T18:52:10.372Z,10.70
2022-07-31T18:54:39.498Z,7.78
2022-07-31T18:57:08.806Z,12.07
2022-07-31T18:59:37.901Z,16.42
2022-07-31T19:02:11.454Z,11.77
2022-07-31T19:04:40.632Z,12.80
2022-07-31T19:07:10.184Z,8.65
2022-07-31T19:09:39.043Z,4.63
2022-07-31T19:12:09.001Z,9.32
2022-07-31T19:14:37.657Z,8.00
2022-07-31T19:17:08.479Z,7.25
2022-07-31T19:19:54.709Z,6.82
2022-07-31T19:22:26.190Z,3.75
2022-07-31T19:24:55.027Z,3.08
2022-07-31T19:27:47.176Z,5.10
2022-07-31T19:30:13.871Z,4.30
2022-07-31T19:32:44.151Z,3.88
2022-07-31T19:35:12.742Z,3.65
2022-07-31T19:37:41.294Z,2.97
2022-07-31T19:40:11.035Z,4.40
2022-07-31T19:42:40.566Z,15.25
2022-07-31T19:45:09.673Z,11.20
2022-07-31T19:47:38.331Z,6.55
2022-07-31T19:50:12.284Z,3.70
2022-07-31T19:52:41.274Z,3.63
2022-07-31T19:55:14.863Z,3.27
2022-07-31T19:57:43.613Z,3.70
2022-07-31T20:00:13.406Z,3.57
2022-07-31T20:02:42.310Z,3.63
2022-07-31T20:05:13.472Z,3.50
2022-07-31T20:07:42.009Z,3.57
2022-07-31T20:10:11.377Z,3.10
2022-07-31T20:12:40.840Z,3.07
2022-07-31T20:15:10.344Z,2.83
2022-07-31T20:17:39.585Z,2.77
2022-07-31T20:20:15.772Z,3.23
2022-07-31T20:22:46.152Z,3.10
2022-07-31T20:25:20.421Z,7.07
2022-07-31T20:27:49.937Z,7.57
2022-07-31T20:30:21.903Z,7.77
2022-07-31T20:32:51.526Z,3.47
2022-07-31T20:35:33.030Z,4.33
2022-07-31T20:38:15.713Z,5.70
2022-07-31T20:40:48.161Z,4.57
2022-07-31T20:43:24.671Z,4.27
2022-07-31T20:45:54.481Z,5.30
2022-07-31T20:48:24.486Z,3.50
2022-07-31T20:50:54.147Z,3.77
2022-07-31T20:53:24.313Z,5.17
2022-07-31T20:55:52.917Z,4.30
2022-07-31T20:58:22.633Z,3.10
2022-07-31T21:00:51.686Z,3.50
2022-07-31T21:03:20.639Z,3.20
2022-07-31T21:05:49.746Z,2.83
2022-07-31T21:08:18.740Z,3.40
2022-07-31T21:10:48.692Z,3.23
2022-07-31T21:13:17.455Z,3.20
2022-07-31T21:15:46.191Z,4.70
2022-07-31T21:18:15.574Z,3.60
2022-07-31T21:20:50.779Z,3.40
2022-07-31T21:23:22.925Z,3.20
2022-07-31T21:25:53.925Z,3.40
2022-07-31T21:28:23.210Z,3.17
2022-07-31T21:30:53.641Z,3.27
2022-07-31T21:33:22.541Z,3.37
2022-07-31T21:35:51.631Z,3.20
2022-07-31T21:38:20.662Z,3.17
2022-07-31T21:40:49.260Z,3.97
2022-07-31T21:43:22.738Z,2.90
2022-07-31T21:45:57.717Z,3.00
2022-07-31T21:48:31.945Z,2.80
2022-07-31T21:51:01.677Z,2.80
2022-07-31T21:53:30.374Z,3.13
2022-07-31T21:56:01.631Z,2.83
2022-07-31T21:58:31.551Z,2.87
2022-07-31T22:01:00.151Z,2.70
2022-07-31T22:03:28.670Z,3.00
2022-07-31T22:06:14.799Z,3.37
2022-07-31T22:08:43.408Z,3.33
2022-07-31T22:11:12.038Z,3.17
2022-07-31T22:13:41.931Z,3.60
2022-07-31T22:16:10.851Z,3.37
2022-07-31T22:18:39.808Z,3.73
2022-07-31T22:21:09.477Z,2.87
2022-07-31T22:23:38.490Z,3.03
2022-07-31T22:26:07.336Z,3.00
2022-07-31T22:28:36.204Z,2.63
2022-07-31T22:31:08.287Z,2.77
2022-07-31T22:33:36.972Z,3.40
2022-07-31T22:36:07.146Z,2.80
2022-07-31T22:38:38.004Z,3.20
2022-07-31T22:41:06.687Z,4.03
2022-07-31T22:44:10.224Z,2.90
2022-07-31T22:46:25.532Z,2.80
2022-07-31T22:48:54.340Z,2.73
2022-07-31T22:51:23.111Z,2.90
2022-07-31T22:53:51.623Z,2.80
2022-07-31T22:56:20.143Z,3.77
2022-07-31T22:58:48.599Z,2.80
2022-07-31T23:01:17.056Z,3.20
2022-07-31T23:03:46.926Z,2.67
2022-07-31T23:06:31.793Z,3.03
2022-07-31T23:09:01.832Z,2.80
2022-07-31T23:11:30.489Z,3.10
2022-07-31T23:13:59.057Z,5.03
2022-07-31T23:16:27.991Z,2.80
2022-07-31T23:18:58.051Z,2.60
2022-07-31T23:21:26.696Z,2.97
2022-07-31T23:23:55.261Z,2.90
2022-07-31T23:26:25.019Z,3.10
2022-07-31T23:28:54.494Z,3.83
2022-07-31T23:31:24.163Z,2.90
2022-07-31T23:33:52.979Z,3.10
2022-07-31T23:36:23.031Z,2.87
2022-07-31T23:38:51.691Z,3.00
2022-07-31T23:41:41.480Z,2.87
2022-07-31T23:44:10.497Z,4.60
2022-07-31T23:46:40.185Z,2.90
2022-07-31T23:49:09.764Z,2.80
2022-07-31T23:51:40.446Z,3.20
2022-07-31T23:54:09.065Z,3.10
2022-07-31T23:56:37.565Z,3.03
2022-07-31T23:59:06.107Z,3.43
